Airfield :
LOGIN :

Register | Disclaimer

   EN    FR    IT 

 










Legend :    VFR   Marginal VFR   IFR   Intensive IFR   Very Intensive IFR
Visi :
Ceiling :
>= 8 km
>= 3000ft
5 to 8 km
1000 to 3000 ft
1500m to 5 km
500 to 1000 ft
800 to 1500m
200 to 500 ft
< 800m
< 200 ft
Symbols :   Thunderstorms  Fog  Heavy snow  Heavy precipitations  Wind > 20 kt
SIGMETs :     Misc.  Thunderstorms  Icing  Turbulence  Mountain Waves  Volcanic Ashes







- Airport Elevation : 53 ft
- IATA code : HAM


EDDH - Hamburg

CURRENT METAR :
  • 160850Z 25006KT 8000 SCT005 SCT078 BKN250 02/01 Q1004 NOSIG

EXPIRED METARs :
  • 160820Z 25005KT 7000 SCT007 FEW011CB BKN026 02/01 Q1003 TEMPO BKN007
  • 160750Z 24004KT 5000 -SHRASN FEW005 SCT011CB BKN022 01/01 Q1003 RERA NOSIG
  • 160720Z 31007KT 5000 SHRASN BKN004 BKN014CB 02/01 Q1003 BECMG NSW SCT004 BKN015
  • 160650Z 26006KT 230V310 8000 VCSH SCT007 FEW017CB SCT027 BKN110 02/01 Q1002 TEMPO SHRAGS
  • 160620Z 25008KT 220V280 8000 SCT006 FEW018TCU BKN100 02/01 Q1002 NOSIG

TAF AMD TAF EDDH
Valid from the 16 at 07:00 until the 17 at 12:00 UTC


160724Z 1607/1712 28005KT 9999 BKN007
PROB30
TEMPO 1607/1612 4000 SHRASN BKN004 BKN012CB
BECMG 1607/1609 SCT015
TEMPO 1618/1624 BKN007
No reported NOTAMs for that airfield.



MET'MAP, your aeronautical weather chart ! - Copyright ORBIFLY December 2007 - Disclaimer

ORBIFLY MET'MAP TEAM :

Programming & Development : Alexandra Zaïnal
Concept & Development : Baudouin d'Aumeries
Co-Development & Prog : Marc-Olivier Méhu
Technical & hardware support : Manuel Goepfert

Contact : metmap@orbifly.com




SOURCES & CREDITS :

   NOAA